createdAt,value
2019-06-08T00:02:18.454Z,100899.05
2019-06-08T00:04:46.345Z,100923.27
2019-06-08T00:07:14.609Z,100909.64
2019-06-08T00:09:42.606Z,100907.91
2019-06-08T00:12:10.384Z,100917.95
2019-06-08T00:14:38.240Z,100904.19
2019-06-08T00:17:06.016Z,100914.03
2019-06-08T00:19:33.776Z,100910.14
2019-06-08T00:22:01.622Z,100916.56
2019-06-08T00:24:29.784Z,100906.03
2019-06-08T00:26:57.571Z,100903.25
2019-06-08T00:29:25.368Z,100913.38
2019-06-08T00:31:53.199Z,100905.98
2019-06-08T00:34:21.057Z,100913.00
2019-06-08T00:36:48.836Z,100932.92
2019-06-08T00:39:16.791Z,100917.06
2019-06-08T00:41:44.679Z,100902.69
2019-06-08T00:44:12.525Z,100914.92
2019-06-08T00:46:40.519Z,100919.88
2019-06-08T00:49:08.294Z,100911.40
2019-06-08T00:51:36.091Z,100918.80
2019-06-08T00:54:03.845Z,100920.38
2019-06-08T00:56:31.754Z,100929.89
2019-06-08T00:58:59.853Z,100937.06
2019-06-08T01:01:28.224Z,100942.13
2019-06-08T01:03:57.880Z,100936.45
2019-06-08T01:06:25.652Z,100919.77
2019-06-08T01:08:53.483Z,100895.37
2019-06-08T01:11:22.454Z,100884.47
2019-06-08T01:13:50.488Z,100903.81
2019-06-08T01:16:18.808Z,100899.44
2019-06-08T01:18:46.673Z,100897.02
2019-06-08T01:21:14.448Z,100912.55
2019-06-08T01:23:42.215Z,100904.17
2019-06-08T01:26:09.994Z,100925.95
2019-06-08T01:28:37.784Z,100929.69
2019-06-08T01:31:05.614Z,100926.17
2019-06-08T01:33:33.385Z,100934.44
2019-06-08T01:36:01.141Z,100924.82
2019-06-08T01:38:29.171Z,100905.38
2019-06-08T01:40:57.088Z,100895.83
2019-06-08T01:43:25.815Z,100896.61
2019-06-08T01:45:53.814Z,100886.69
2019-06-08T01:48:22.278Z,100821.36
2019-06-08T01:50:50.256Z,100808.51
2019-06-08T01:53:18.040Z,100828.05
2019-06-08T01:55:45.828Z,100879.94
2019-06-08T01:58:13.629Z,100908.54
2019-06-08T02:00:41.947Z,100915.27
2019-06-08T02:03:09.991Z,100934.42
2019-06-08T02:05:37.770Z,100904.08
2019-06-08T02:08:05.625Z,100912.11
2019-06-08T02:10:33.406Z,100896.69
2019-06-08T02:13:01.264Z,100871.03
2019-06-08T02:15:29.180Z,100858.62
2019-06-08T02:17:57.053Z,100843.25
2019-06-08T02:20:26.345Z,100890.52
2019-06-08T02:22:54.245Z,100915.71
2019-06-08T02:25:27.184Z,100935.23
2019-06-08T02:27:55.526Z,100929.02
2019-06-08T02:30:23.284Z,100936.34
2019-06-08T02:32:51.073Z,100933.72
2019-06-08T02:35:19.075Z,100938.83
2019-06-08T02:37:46.968Z,100927.51
2019-06-08T02:40:14.742Z,100936.73
2019-06-08T02:42:42.497Z,100944.35
2019-06-08T02:45:10.249Z,100947.59
2019-06-08T02:47:38.035Z,100953.31
2019-06-08T02:50:05.944Z,100955.44
2019-06-08T02:52:34.361Z,100959.39
2019-06-08T02:55:03.293Z,100962.71
2019-06-08T02:57:31.103Z,100962.71
2019-06-08T02:59:59.900Z,100960.59
2019-06-08T03:02:29.642Z,100953.36
2019-06-08T03:04:57.573Z,100953.42
2019-06-08T03:07:25.328Z,100960.45
2019-06-08T03:09:54.709Z,100955.90
2019-06-08T03:12:23.124Z,100964.30
2019-06-08T03:14:51.069Z,100960.17
2019-06-08T03:17:18.899Z,100972.45
2019-06-08T03:19:46.744Z,100968.02
2019-06-08T03:22:14.621Z,100967.55
2019-06-08T03:24:44.144Z,100968.50
2019-06-08T03:27:11.858Z,100957.98
2019-06-08T03:29:41.633Z,100939.94
2019-06-08T03:32:09.105Z,100926.40
2019-06-08T03:34:45.768Z,100931.85
2019-06-08T03:37:06.602Z,100932.20
2019-06-08T03:39:35.145Z,100946.93
2019-06-08T03:42:03.858Z,100933.98
2019-06-08T03:44:31.623Z,100927.76
2019-06-08T03:46:59.383Z,100937.86
2019-06-08T03:49:41.533Z,100951.34
2019-06-08T03:51:59.546Z,100941.81
2019-06-08T03:54:27.309Z,100942.23
2019-06-08T03:56:55.085Z,100939.09
2019-06-08T03:59:22.822Z,100936.38
2019-06-08T04:01:50.585Z,100932.91
2019-06-08T04:04:18.339Z,100931.19
2019-06-08T04:06:46.105Z,100934.68
2019-06-08T04:09:13.872Z,100935.21
2019-06-08T04:11:42.361Z,100947.50
2019-06-08T04:14:11.219Z,100945.37
2019-06-08T04:16:40.203Z,100948.73
2019-06-08T04:19:08.518Z,100953.01
2019-06-08T04:21:37.759Z,100949.83
2019-06-08T04:24:05.748Z,100956.19
2019-06-08T04:26:33.586Z,100948.38
2019-06-08T04:29:01.387Z,100946.61
2019-06-08T04:31:29.197Z,100941.17
2019-06-08T04:33:57.034Z,100941.35
2019-06-08T04:36:24.845Z,100953.03
2019-06-08T04:38:52.771Z,100966.45
2019-06-08T04:41:20.577Z,100975.56
2019-06-08T04:43:49.860Z,100986.44
2019-06-08T04:46:17.780Z,100984.58
2019-06-08T04:48:47.401Z,100992.66
2019-06-08T04:51:15.022Z,101003.11
2019-06-08T04:53:43.238Z,101027.30
2019-06-08T04:56:12.290Z,101009.16
2019-06-08T04:58:42.131Z,101017.38
2019-06-08T05:01:09.856Z,101031.77
2019-06-08T05:03:41.231Z,101042.20
2019-06-08T05:06:09.210Z,101028.53
2019-06-08T05:08:37.040Z,101031.15
2019-06-08T05:11:05.147Z,101025.81
2019-06-08T05:13:32.914Z,101023.98
2019-06-08T05:16:00.717Z,101032.14
2019-06-08T05:18:28.484Z,101030.72
2019-06-08T05:20:56.249Z,101011.01
2019-06-08T05:23:24.048Z,101009.78
2019-06-08T05:25:52.168Z,101011.69
2019-06-08T05:28:19.939Z,101019.06
2019-06-08T05:30:47.699Z,101021.61
2019-06-08T05:33:15.455Z,101039.05
2019-06-08T05:35:43.451Z,101050.73
2019-06-08T05:38:11.285Z,101048.35
2019-06-08T05:40:39.454Z,101054.67
2019-06-08T05:43:07.344Z,101054.84
2019-06-08T05:45:35.111Z,101059.94
2019-06-08T05:48:02.885Z,101057.45
2019-06-08T05:50:30.641Z,101055.89
2019-06-08T05:52:58.460Z,101055.80
2019-06-08T05:55:26.220Z,101045.88
2019-06-08T05:57:53.969Z,101031.84
2019-06-08T06:00:21.769Z,101014.48
2019-06-08T06:02:50.894Z,101025.52
2019-06-08T06:05:18.867Z,101034.69
2019-06-08T06:07:46.786Z,101044.23
2019-06-08T06:10:14.819Z,101063.73
2019-06-08T06:12:43.011Z,101060.06
2019-06-08T06:15:11.848Z,101059.48
2019-06-08T06:17:40.885Z,101071.56
2019-06-08T06:20:08.668Z,101065.97
2019-06-08T06:22:36.524Z,101065.80
2019-06-08T06:25:04.662Z,101082.27
2019-06-08T06:27:32.770Z,101086.30
2019-06-08T06:30:00.536Z,101090.69
2019-06-08T06:32:28.418Z,101091.73
2019-06-08T06:34:56.193Z,101081.03
2019-06-08T06:37:24.068Z,101088.75
2019-06-08T06:39:52.235Z,101090.85
2019-06-08T06:42:20.286Z,101081.98
2019-06-08T06:44:48.989Z,101087.77
2019-06-08T06:47:17.544Z,101082.08
2019-06-08T06:49:46.411Z,101087.41
2019-06-08T06:52:14.281Z,101097.43
2019-06-08T06:54:42.793Z,101094.78
2019-06-08T06:57:10.693Z,101093.20
2019-06-08T06:59:38.456Z,101100.70
2019-06-08T07:02:06.212Z,101089.53
2019-06-08T07:04:34.110Z,101091.04
2019-06-08T07:07:01.960Z,101086.91
2019-06-08T07:09:29.815Z,101105.03
2019-06-08T07:11:57.587Z,101120.23
2019-06-08T07:14:25.354Z,101110.94
2019-06-08T07:16:54.086Z,101105.50
2019-06-08T07:19:21.972Z,101118.87
2019-06-08T07:21:50.302Z,101113.34
2019-06-08T07:24:18.268Z,101113.19
2019-06-08T07:26:46.356Z,101125.16
2019-06-08T07:29:14.248Z,101116.53
2019-06-08T07:31:42.050Z,101120.70
2019-06-08T07:34:09.924Z,101112.77
2019-06-08T07:36:40.979Z,101123.00
2019-06-08T07:39:10.180Z,101128.53
2019-06-08T07:41:39.089Z,101123.64
2019-06-08T07:44:06.971Z,101121.27
2019-06-08T07:46:34.904Z,101112.77
2019-06-08T07:49:02.844Z,101128.53
2019-06-08T07:51:30.608Z,101095.02
2019-06-08T07:53:59.831Z,101134.19
2019-06-08T07:56:27.876Z,101132.61
2019-06-08T07:58:57.062Z,101140.44
2019-06-08T08:01:35.800Z,101143.94
2019-06-08T08:03:54.768Z,101141.86
2019-06-08T08:06:22.539Z,101153.91
2019-06-08T08:08:50.670Z,101140.34
2019-06-08T08:11:18.415Z,101158.30
2019-06-08T08:13:46.245Z,101147.53
2019-06-08T08:16:14.036Z,101148.58
2019-06-08T08:18:42.161Z,101152.97
2019-06-08T08:21:21.291Z,101148.89
2019-06-08T08:23:39.546Z,101155.05
2019-06-08T08:26:07.324Z,101158.70
2019-06-08T08:28:37.399Z,101158.25
2019-06-08T08:31:04.646Z,101159.92
2019-06-08T08:33:32.432Z,101165.20
2019-06-08T08:36:01.846Z,101157.67
2019-06-08T08:38:29.890Z,101162.79
2019-06-08T08:41:06.306Z,101160.32
2019-06-08T08:43:28.042Z,101162.24
2019-06-08T08:45:56.763Z,101159.22
2019-06-08T08:48:29.446Z,101171.12
2019-06-08T08:50:56.193Z,101162.00
2019-06-08T08:53:24.527Z,101162.84
2019-06-08T08:55:52.399Z,101167.03
2019-06-08T08:58:20.287Z,101171.88
2019-06-08T09:00:48.811Z,101175.68
2019-06-08T09:03:28.725Z,101169.22
2019-06-08T09:05:48.223Z,101178.83
2019-06-08T09:08:18.087Z,101186.03
2019-06-08T09:13:55.547Z,101200.93
2019-06-08T09:16:24.005Z,101202.81
2019-06-08T09:18:52.766Z,101213.02
2019-06-08T09:21:21.281Z,101210.25
2019-06-08T09:23:49.089Z,101224.47
2019-06-08T09:26:17.659Z,101217.36
2019-06-08T09:28:45.564Z,101232.75
2019-06-08T09:31:13.414Z,101244.20
2019-06-08T09:33:41.163Z,101242.58
2019-06-08T09:36:09.200Z,101227.92
2019-06-08T09:38:38.647Z,101242.58
2019-06-08T09:41:08.788Z,101246.17
2019-06-08T09:43:38.591Z,101248.23
2019-06-08T09:46:07.999Z,101260.32
2019-06-08T09:48:35.133Z,101260.41
2019-06-08T09:51:05.636Z,101257.23
2019-06-08T09:53:37.639Z,101265.83
2019-06-08T09:56:06.456Z,101284.59
2019-06-08T09:58:33.251Z,101265.69
2019-06-08T10:01:02.895Z,101277.17
2019-06-08T10:03:33.828Z,101289.51
2019-06-08T10:06:06.837Z,101289.66
2019-06-08T10:08:31.227Z,101281.27
2019-06-08T10:11:01.472Z,101286.00
2019-06-08T10:13:30.534Z,101276.00
2019-06-08T10:16:01.931Z,101299.04
2019-06-08T10:18:28.521Z,101292.73
2019-06-08T10:21:00.421Z,101291.23
2019-06-08T10:23:33.417Z,101306.44
2019-06-08T10:25:58.264Z,101299.46
2019-06-08T10:28:29.113Z,101319.36
2019-06-08T10:30:59.632Z,101311.73
2019-06-08T10:33:28.174Z,101319.02
2019-06-08T10:35:59.132Z,101317.10
2019-06-08T10:38:25.645Z,101312.38
2019-06-08T10:41:13.079Z,101325.28
2019-06-08T10:43:33.026Z,101322.09
2019-06-08T10:46:07.721Z,101331.42
2019-06-08T10:48:30.367Z,101332.25
2019-06-08T10:51:12.492Z,101334.34
2019-06-08T10:53:52.533Z,101332.20
2019-06-08T10:56:18.679Z,101336.66
2019-06-08T10:58:49.457Z,101339.61
2019-06-08T11:01:18.589Z,101333.41
2019-06-08T11:03:45.273Z,101337.80
2019-06-08T11:06:13.592Z,101356.38
2019-06-08T11:08:41.716Z,101351.63
2019-06-08T11:11:11.846Z,101351.45
2019-06-08T11:13:39.216Z,101353.48
2019-06-08T11:16:11.222Z,101367.89
2019-06-08T11:18:36.596Z,101349.88
2019-06-08T11:21:14.200Z,101370.05
2019-06-08T11:23:42.036Z,101366.45
2019-06-08T11:26:19.379Z,101374.95
2019-06-08T11:28:39.459Z,101365.13
2019-06-08T11:31:12.044Z,101365.60
2019-06-08T11:33:39.039Z,101371.95
2019-06-08T11:36:11.126Z,101370.60
2019-06-08T11:38:38.125Z,101375.48
2019-06-08T11:41:07.786Z,101381.16
2019-06-08T11:43:34.973Z,101389.87
2019-06-08T11:46:02.758Z,101385.13
2019-06-08T11:48:31.284Z,101398.93
2019-06-08T11:51:06.674Z,101377.38
2019-06-08T11:53:34.936Z,101391.27
2019-06-08T11:56:03.135Z,101389.16
2019-06-08T11:58:31.394Z,101406.85
2019-06-08T12:01:03.427Z,101400.70
2019-06-08T12:03:31.263Z,101405.63
2019-06-08T12:05:59.174Z,101404.27
2019-06-08T12:08:28.385Z,101406.81
2019-06-08T12:11:01.153Z,101403.67
2019-06-08T12:13:27.777Z,101415.95
2019-06-08T12:15:55.822Z,101405.37
2019-06-08T12:18:23.593Z,101412.73
2019-06-08T12:20:51.380Z,101418.92
2019-06-08T12:23:19.164Z,101420.74
2019-06-08T12:25:47.032Z,101422.52
2019-06-08T12:28:14.833Z,101423.75
2019-06-08T12:30:42.626Z,101419.85
2019-06-08T12:33:12.345Z,101419.94
2019-06-08T12:35:39.984Z,101413.80
2019-06-08T12:38:09.588Z,101412.95
2019-06-08T12:40:37.853Z,101410.23
2019-06-08T12:43:08.241Z,101404.53
2019-06-08T12:45:38.118Z,101408.38
2019-06-08T12:48:08.860Z,101405.67
2019-06-08T12:50:35.673Z,101397.28
2019-06-08T12:53:03.505Z,101409.27
2019-06-08T12:58:58.075Z,101235.42
2019-06-08T13:01:32.105Z,101402.45
2019-06-08T13:36:41.630Z,101421.72
2019-06-08T13:39:11.275Z,101421.50
2019-06-08T13:41:38.405Z,101418.84
2019-06-08T13:44:08.273Z,101424.39
2019-06-08T13:46:38.769Z,101418.71
2019-06-08T13:49:08.247Z,101418.24
2019-06-08T13:51:38.249Z,101422.94
2019-06-08T13:54:08.334Z,101430.86
2019-06-08T13:59:31.084Z,101428.23
2019-06-08T14:18:48.589Z,101452.75
2019-06-08T14:21:21.464Z,101456.42
2019-06-08T14:23:48.351Z,101453.77
2019-06-08T14:26:16.969Z,101456.80
2019-06-08T14:39:11.595Z,101463.47
2019-06-08T14:41:39.898Z,101463.72
2019-06-08T14:44:08.296Z,101458.17
2019-06-08T14:46:40.837Z,101462.02
2019-06-08T14:49:05.778Z,101453.59
2019-06-08T14:51:52.493Z,101458.05
2019-06-08T14:54:26.010Z,101461.72
2019-06-08T14:56:50.476Z,101461.28
2019-06-08T14:59:20.067Z,101461.59
2019-06-08T15:01:48.968Z,101455.46
2019-06-08T15:04:20.279Z,101461.08
2019-06-08T15:06:48.798Z,101454.98
2019-06-08T15:09:17.814Z,101455.02
2019-06-08T15:11:47.938Z,101465.86
2019-06-08T15:14:15.184Z,101464.80
2019-06-08T15:16:43.220Z,101451.25
2019-06-08T15:19:11.120Z,101450.88
2019-06-08T15:21:38.997Z,101451.57
2019-06-08T15:24:08.088Z,101450.68
2019-06-08T15:26:42.307Z,101461.84
2019-06-08T15:29:09.969Z,101468.16
2019-06-08T15:31:39.045Z,101478.84
2019-06-08T15:34:10.473Z,101463.72
2019-06-08T15:36:38.199Z,101470.02
2019-06-08T15:39:07.818Z,101469.45
2019-06-08T15:41:38.055Z,101483.41
2019-06-08T15:44:05.206Z,101481.50
2019-06-08T15:46:32.985Z,101487.17
2019-06-08T15:49:00.780Z,101477.86
2019-06-08T15:51:29.691Z,101490.31
2019-06-08T15:53:58.390Z,101491.82
2019-06-08T15:56:38.211Z,101490.56
2019-06-08T15:58:55.672Z,101491.78
2019-06-08T16:01:23.450Z,101506.02
2019-06-08T16:03:51.228Z,101496.95
2019-06-08T16:06:22.006Z,101495.98
2019-06-08T16:08:49.872Z,101500.67
2019-06-08T16:11:17.618Z,101497.13
2019-06-08T16:13:45.384Z,101506.26
2019-06-08T16:16:13.156Z,101482.64
2019-06-08T16:18:40.938Z,101505.20
2019-06-08T16:21:08.783Z,101500.35
2019-06-08T16:23:36.597Z,101497.69
2019-06-08T16:26:04.475Z,101497.77
2019-06-08T16:28:32.335Z,101497.77
2019-06-08T16:31:01.170Z,101494.25
2019-06-08T16:33:33.634Z,101494.61
2019-06-08T16:36:06.090Z,101497.69
2019-06-08T16:38:36.347Z,101501.41
2019-06-08T16:41:12.821Z,101496.43
2019-06-08T16:43:40.566Z,101499.55
2019-06-08T16:46:08.368Z,101514.06
2019-06-08T16:48:36.372Z,101513.02
2019-06-08T16:51:04.140Z,101503.06
2019-06-08T16:53:32.511Z,101506.78
2019-06-08T16:56:01.487Z,101516.78
2019-06-08T16:58:30.002Z,101520.50
2019-06-08T17:00:57.915Z,101530.28
2019-06-08T17:03:26.077Z,101536.96
2019-06-08T17:05:53.943Z,101563.06
2019-06-08T17:08:21.745Z,101545.94
2019-06-08T17:10:49.509Z,101538.66
2019-06-08T17:13:17.358Z,101535.22
2019-06-08T17:15:45.210Z,101528.66
2019-06-08T17:18:13.077Z,101531.25
2019-06-08T17:20:40.851Z,101533.12
2019-06-08T17:23:08.644Z,101527.65
2019-06-08T17:25:36.646Z,101525.06
2019-06-08T17:28:04.469Z,101527.53
2019-06-08T17:30:33.805Z,101530.61
2019-06-08T17:33:01.722Z,101533.88
2019-06-08T17:35:29.629Z,101535.09
2019-06-08T17:37:57.399Z,101542.09
2019-06-08T17:40:25.179Z,101547.19
2019-06-08T17:42:52.951Z,101541.89
2019-06-08T17:45:21.036Z,101542.95
2019-06-08T17:47:48.889Z,101542.02
2019-06-08T17:50:16.655Z,101543.15
2019-06-08T17:52:44.440Z,101536.59
2019-06-08T17:55:12.506Z,101540.20
2019-06-08T17:57:48.574Z,101538.25
2019-06-08T18:00:11.335Z,101526.44
2019-06-08T18:02:42.011Z,101538.25
2019-06-08T18:05:28.897Z,101555.45
2019-06-08T18:07:57.847Z,101550.84
2019-06-08T18:10:27.753Z,101553.30
2019-06-08T18:12:55.292Z,101555.97
2019-06-08T18:15:23.078Z,101555.00
2019-06-08T18:17:53.883Z,101552.24
2019-06-08T18:20:21.841Z,101545.16
2019-06-08T18:22:50.218Z,101549.53
2019-06-08T18:25:20.612Z,101545.80
2019-06-08T18:28:06.573Z,101544.16
2019-06-08T18:30:27.747Z,101553.09
2019-06-08T18:33:07.348Z,101549.58
2019-06-08T18:35:40.787Z,101571.22
2019-06-08T18:38:13.729Z,101590.84
2019-06-08T18:41:02.266Z,101585.69
2019-06-08T18:43:58.343Z,101564.11
2019-06-08T18:49:48.221Z,101578.25
2019-06-08T18:52:17.619Z,101574.58
2019-06-08T18:54:48.773Z,101588.09
2019-06-08T18:57:17.527Z,101578.25
2019-06-08T18:59:48.841Z,101587.30
2019-06-08T19:02:17.899Z,101590.08
2019-06-08T19:04:48.069Z,101584.78
2019-06-08T19:07:17.607Z,101598.09
2019-06-08T19:09:47.952Z,101592.07
2019-06-08T19:12:16.911Z,101619.84
2019-06-08T19:14:44.520Z,101622.50
2019-06-08T19:17:12.325Z,101624.38
2019-06-08T19:19:44.343Z,101645.17
2019-06-08T19:22:09.652Z,101641.73
2019-06-08T19:28:07.800Z,101657.76
2019-06-08T19:30:37.901Z,101618.00
2019-06-08T19:33:07.370Z,101650.59
2019-06-08T19:35:34.976Z,101654.28
2019-06-08T19:38:02.896Z,101658.81
2019-06-08T19:40:30.753Z,101660.47
2019-06-08T19:43:01.438Z,101647.03
2019-06-08T19:45:28.338Z,101624.89
2019-06-08T19:47:57.730Z,101639.06
2019-06-08T19:50:28.050Z,101637.31
2019-06-08T19:52:57.827Z,101651.73
2019-06-08T19:55:24.776Z,101650.99
2019-06-08T19:57:52.586Z,101656.46
2019-06-08T20:00:20.382Z,101647.44
2019-06-08T20:02:53.161Z,101652.86
2019-06-08T20:05:17.846Z,101660.83
2019-06-08T20:07:45.672Z,101657.42
2019-06-08T20:10:13.586Z,101664.83
2019-06-08T20:12:41.375Z,101659.41
2019-06-08T20:15:09.143Z,101660.41
2019-06-08T20:17:37.332Z,101665.02
2019-06-08T20:20:07.752Z,101665.06
2019-06-08T20:22:37.316Z,101667.61
2019-06-08T20:25:10.154Z,101675.91
2019-06-08T20:27:37.119Z,101669.62
2019-06-08T20:30:09.519Z,101669.55
2019-06-08T20:32:35.629Z,101667.77
2019-06-08T20:35:04.445Z,101675.67
2019-06-08T20:37:38.680Z,101679.27
2019-06-08T20:40:13.240Z,101681.21
2019-06-08T20:42:37.866Z,101685.70
2019-06-08T20:45:07.950Z,101679.16
2019-06-08T20:47:36.814Z,101686.28
2019-06-08T20:50:07.322Z,101691.94
2019-06-08T20:52:37.949Z,101699.27
2019-06-08T20:55:08.140Z,101690.77
2019-06-08T20:58:12.913Z,101702.16
2019-06-08T21:00:22.664Z,101703.16
2019-06-08T21:02:51.974Z,101711.30
2019-06-08T21:05:35.514Z,101717.65
2019-06-08T21:08:08.379Z,101714.71
2019-06-08T21:10:37.812Z,101726.71
2019-06-08T21:13:14.548Z,101728.83
2019-06-08T21:15:42.351Z,101561.50
2019-06-08T21:18:10.139Z,101723.41
2019-06-08T21:20:40.499Z,101726.94
2019-06-08T21:23:09.812Z,101732.36
2019-06-08T21:25:37.794Z,101722.52
2019-06-08T21:28:07.693Z,101729.76
2019-06-08T21:30:37.571Z,101737.08
2019-06-08T21:33:07.802Z,101728.80
2019-06-08T21:35:35.166Z,101732.36
2019-06-08T21:38:03.169Z,101741.49
2019-06-08T21:40:31.095Z,101747.02
2019-06-08T21:43:01.338Z,101743.45
2019-06-08T21:45:29.889Z,101748.98
2019-06-08T21:48:00.210Z,101747.31
2019-06-08T21:50:27.885Z,101748.09
2019-06-08T21:52:59.082Z,101755.34
2019-06-08T21:55:38.045Z,101745.31
2019-06-08T21:58:24.583Z,101754.66
2019-06-08T22:00:52.688Z,101758.05
2019-06-08T22:03:20.640Z,101760.98
2019-06-08T22:05:49.769Z,101759.16
2019-06-08T22:08:17.864Z,101761.87
2019-06-08T22:10:47.137Z,101767.22
2019-06-08T22:13:17.292Z,101772.00
2019-06-08T22:15:47.312Z,101762.87
2019-06-08T22:18:14.672Z,101770.11
2019-06-08T22:20:42.505Z,101764.97
2019-06-08T22:23:10.300Z,101751.75
2019-06-08T22:25:38.716Z,101762.27
2019-06-08T22:28:07.790Z,101767.61
2019-06-08T22:30:42.484Z,101768.72
2019-06-08T22:33:05.180Z,101776.84
2019-06-08T22:35:33.046Z,101772.60
2019-06-08T22:38:01.001Z,101782.44
2019-06-08T22:40:28.841Z,101784.25
2019-06-08T22:42:57.742Z,101788.75
2019-06-08T22:45:28.150Z,101786.03
2019-06-08T22:47:58.596Z,101777.80
2019-06-08T22:50:27.416Z,101777.05
2019-06-08T22:52:59.372Z,101777.02
2019-06-08T22:55:27.609Z,101781.66
2019-06-08T22:57:55.456Z,101790.50
2019-06-08T23:00:24.913Z,101787.11
2019-06-08T23:02:54.365Z,101782.72
2019-06-08T23:05:22.347Z,101785.42
2019-06-08T23:07:50.139Z,101787.45
2019-06-08T23:10:17.904Z,101781.00
2019-06-08T23:12:47.239Z,101780.18
2019-06-08T23:15:15.178Z,101782.78
2019-06-08T23:17:42.991Z,101788.20
2019-06-08T23:20:10.797Z,101783.92
2019-06-08T23:22:38.829Z,101791.02
2019-06-08T23:25:09.430Z,101791.12
2019-06-08T23:27:37.964Z,101795.81
2019-06-08T23:30:09.950Z,101792.87
2019-06-08T23:32:38.374Z,101791.94
2019-06-08T23:35:07.449Z,101792.01
2019-06-08T23:37:37.261Z,101789.30
2019-06-08T23:40:05.392Z,101797.63
2019-06-08T23:42:33.381Z,101796.67
2019-06-08T23:45:02.323Z,101796.91
2019-06-08T23:47:30.376Z,101795.05
2019-06-08T23:50:01.627Z,101799.45
2019-06-08T23:52:27.982Z,101797.73
2019-06-08T23:54:58.232Z,101769.52
2019-06-08T23:57:27.253Z,101804.97
2019-06-08T23:59:54.866Z,101814.21
